Time;durP1;ratioP1;P1;durP2;ratioP2;P2;SDS_P1;SDS_P2;PMS_P1;PMS_P2;Temp;Humidity;BMP_temperature;BMP_pressure;BME280_temperature;BME280_humidity;BME280_pressure;Samples;Min_cycle;Max_cycle;Signal;HPM_P1;HPM_P2
2022/05/30 00:00:22;;;;;;;1.60;1.50;;;15.20;99.90;;;;;;6215005;23;20003;-76
2022/05/30 00:02:49;;;;;;;2.33;1.33;;;15.30;99.90;;;;;;6215081;23;20079;-76
2022/05/30 00:05:16;;;;;;;3.03;1.58;;;15.30;99.90;;;;;;6215546;23;19989;-76
2022/05/30 00:07:42;;;;;;;1.70;1.60;;;15.30;99.90;;;;;;6215025;23;20442;-76
2022/05/30 00:10:10;;;;;;;1.80;1.17;;;15.40;99.90;;;;;;6214994;23;20003;-76
2022/05/30 00:12:36;;;;;;;1.40;1.30;;;15.30;99.90;;;;;;6188509;23;20324;-76
2022/05/30 00:15:08;;;;;;;4.78;1.10;;;15.20;99.90;;;;;;6215232;23;20000;-76
2022/05/30 00:17:33;;;;;;;2.67;1.00;;;15.30;99.90;;;;;;6214666;23;20459;-76
2022/05/30 00:19:59;;;;;;;2.63;1.20;;;15.30;99.90;;;;;;6215875;23;20001;-77
2022/05/30 00:22:25;;;;;;;1.25;1.13;;;15.30;99.90;;;;;;6217186;23;19997;-76
2022/05/30 00:24:51;;;;;;;1.30;1.25;;;15.30;99.90;;;;;;6217280;23;20372;-76
2022/05/30 00:27:18;;;;;;;1.20;1.10;;;15.40;99.90;;;;;;6216853;23;20344;-76
2022/05/30 00:29:44;;;;;;;1.08;1.00;;;15.40;99.90;;;;;;6216901;23;20005;-76
2022/05/30 00:32:10;;;;;;;0.80;0.80;;;15.40;99.90;;;;;;6190345;23;20023;-76
2022/05/30 00:34:36;;;;;;;1.13;1.13;;;15.40;99.90;;;;;;6217023;23;20005;-76
2022/05/30 00:37:03;;;;;;;1.05;1.05;;;15.40;99.90;;;;;;6216766;23;20001;-76
2022/05/30 00:39:29;;;;;;;1.42;1.35;;;15.40;99.90;;;;;;6216780;23;20425;-76
2022/05/30 00:42:15;;;;;;;0.90;0.90;;;15.40;99.90;;;;;;6216429;23;20008;-76
2022/05/30 00:44:43;;;;;;;2.17;0.98;;;15.40;99.90;;;;;;6216697;23;20548;-76
2022/05/30 00:47:09;;;;;;;1.42;1.20;;;15.30;99.90;;;;;;6216753;23;20314;-76
2022/05/30 00:49:36;;;;;;;1.17;1.10;;;15.30;99.90;;;;;;6190049;23;20058;-77
2022/05/30 00:52:05;;;;;;;3.00;1.33;;;15.20;99.90;;;;;;6216703;23;20054;-77
2022/05/30 00:54:43;;;;;;;1.05;1.05;;;15.30;99.90;;;;;;6216554;23;20028;-76
2022/05/30 00:57:43;;;;;;;3.65;1.20;;;15.30;99.90;;;;;;6216579;23;20000;-76
2022/05/30 01:00:17;;;;;;;1.95;1.40;;;15.30;99.90;;;;;;6209691;23;20001;-77
2022/05/30 01:02:43;;;;;;;1.30;1.20;;;15.30;99.90;;;;;;6216822;23;20024;-77
2022/05/30 01:08:01;;;;;;;4.20;1.55;;;15.30;99.90;;;;;;6216800;23;20333;-76
2022/05/30 01:10:27;;;;;;;1.63;1.40;;;15.40;99.90;;;;;;6190132;23;20007;-76
2022/05/30 01:12:55;;;;;;;1.80;1.70;;;15.30;99.90;;;;;;6216575;23;20001;-76
2022/05/30 01:15:27;;;;;;;2.05;1.65;;;15.30;99.90;;;;;;6216254;23;20032;-76
2022/05/30 01:18:03;;;;;;;1.58;1.48;;;15.30;99.90;;;;;;6216400;23;20012;-76
2022/05/30 01:20:50;;;;;;;3.03;1.48;;;15.30;99.90;;;;;;6216379;23;20564;-76
2022/05/30 01:23:42;;;;;;;1.60;1.50;;;15.30;99.90;;;;;;6216590;23;20514;-76
2022/05/30 01:26:23;;;;;;;1.27;1.17;;;15.20;99.90;;;;;;6210693;23;20436;-77
2022/05/30 01:28:52;;;;;;;3.42;1.38;;;15.30;99.90;;;;;;6216356;23;20001;-76
2022/05/30 01:31:18;;;;;;;1.13;1.13;;;15.30;99.90;;;;;;6216506;23;20011;-76
2022/05/30 01:33:47;;;;;;;1.50;1.40;;;15.30;99.90;;;;;;6216494;23;20080;-77
2022/05/30 01:36:13;;;;;;;1.52;1.42;;;15.30;99.90;;;;;;6188994;23;20336;-76
2022/05/30 01:38:39;;;;;;;1.42;1.33;;;15.20;99.90;;;;;;6216133;23;20004;-77
2022/05/30 01:41:05;;;;;;;3.13;1.25;;;15.20;99.90;;;;;;6216162;23;20507;-77
2022/05/30 01:43:32;;;;;;;2.92;1.35;;;15.20;99.90;;;;;;6216208;23;20076;-77
2022/05/30 01:46:06;;;;;;;1.58;1.48;;;15.20;99.90;;;;;;6216218;23;20004;-76
2022/05/30 01:48:32;;;;;;;1.63;1.40;;;15.20;99.90;;;;;;6216062;23;20004;-76
2022/05/30 01:50:59;;;;;;;1.55;1.45;;;15.20;99.90;;;;;;6216246;23;20000;-76
2022/05/30 01:53:26;;;;;;;1.20;1.20;;;15.20;99.90;;;;;;6216262;23;20455;-76
2022/05/30 01:55:52;;;;;;;3.75;1.60;;;15.20;99.90;;;;;;6216022;23;20012;-76
2022/05/30 01:58:18;;;;;;;1.10;1.10;;;15.20;99.90;;;;;;6215995;23;20328;-76
2022/05/30 02:00:43;;;;;;;1.83;1.73;;;15.20;99.90;;;;;;6189113;23;20301;-76
2022/05/30 02:03:09;;;;;;;1.70;1.60;;;15.20;99.90;;;;;;6189546;23;20051;-76
2022/05/30 02:05:38;;;;;;;2.53;1.60;;;15.30;99.90;;;;;;6215878;23;20012;-76
2022/05/30 02:08:04;;;;;;;1.80;1.70;;;15.30;99.90;;;;;;6215911;23;20005;-76
2022/05/30 02:10:31;;;;;;;3.25;1.85;;;15.30;99.90;;;;;;6189205;23;20093;-76
2022/05/30 02:12:56;;;;;;;1.67;1.58;;;15.30;99.90;;;;;;6215889;23;20058;-76
2022/05/30 02:15:23;;;;;;;1.77;1.67;;;15.30;99.90;;;;;;6189186;23;20087;-76
2022/05/30 02:17:49;;;;;;;3.45;1.70;;;15.40;99.90;;;;;;6216048;23;20008;-76
2022/05/30 02:20:16;;;;;;;1.73;1.60;;;15.40;99.90;;;;;;6215719;23;20012;-76
2022/05/30 02:22:42;;;;;;;2.03;1.83;;;15.40;99.90;;;;;;6215901;23;20083;-76
2022/05/30 02:25:08;;;;;;;1.75;1.65;;;15.40;99.90;;;;;;6215897;23;20437;-76
2022/05/30 02:27:34;;;;;;;2.00;1.90;;;15.40;99.90;;;;;;6215874;23;20015;-76
2022/05/30 02:29:59;;;;;;;1.98;1.88;;;15.30;99.90;;;;;;6215471;23;20029;-76
2022/05/30 02:32:25;;;;;;;2.15;2.05;;;15.30;99.90;;;;;;6215809;23;20024;-76
2022/05/30 02:37:35;;;;;;;1.80;1.70;;;15.40;99.90;;;;;;6215647;23;20019;-76
2022/05/30 02:40:01;;;;;;;1.95;1.85;;;15.30;99.90;;;;;;6189220;23;20004;-76
2022/05/30 02:42:27;;;;;;;2.10;1.95;;;15.20;99.90;;;;;;6215525;23;20001;-76
2022/05/30 02:44:53;;;;;;;2.08;1.98;;;15.30;99.90;;;;;;6215783;23;20080;-76
2022/05/30 02:47:18;;;;;;;1.85;1.75;;;15.30;99.90;;;;;;6188610;23;20005;-76
2022/05/30 02:49:44;;;;;;;1.77;1.67;;;15.30;99.90;;;;;;6215690;23;20460;-76
2022/05/30 02:52:10;;;;;;;2.00;1.90;;;15.30;99.90;;;;;;6215716;23;20066;-76
2022/05/30 02:54:35;;;;;;;1.73;1.55;;;15.30;99.90;;;;;;6215624;23;20000;-76
2022/05/30 02:57:01;;;;;;;1.90;1.80;;;15.30;99.90;;;;;;6215524;23;20004;-76
2022/05/30 02:59:28;;;;;;;1.88;1.73;;;15.30;99.90;;;;;;6189072;23;20447;-76
2022/05/30 03:01:54;;;;;;;1.98;1.88;;;15.30;99.90;;;;;;6215807;23;20000;-76
2022/05/30 03:04:20;;;;;;;3.92;2.13;;;15.30;99.90;;;;;;6215596;23;20649;-76
2022/05/30 03:06:47;;;;;;;1.77;1.67;;;15.30;99.90;;;;;;6215565;23;20007;-76
2022/05/30 03:09:14;;;;;;;2.03;1.77;;;15.30;99.90;;;;;;6215671;23;20051;-76
2022/05/30 03:11:40;;;;;;;2.17;2.08;;;15.20;99.90;;;;;;6215259;23;20000;-76
2022/05/30 03:14:06;;;;;;;2.92;2.33;;;15.20;99.90;;;;;;6215389;23;20008;-76
2022/05/30 03:16:32;;;;;;;1.70;1.60;;;15.20;99.90;;;;;;6188206;23;20009;-76
2022/05/30 03:18:58;;;;;;;2.65;1.90;;;15.30;99.90;;;;;;6215327;23;20079;-76
2022/05/30 03:21:23;;;;;;;3.45;2.22;;;15.20;99.90;;;;;;6215419;23;20007;-76
2022/05/30 03:23:50;;;;;;;1.83;1.73;;;15.10;99.90;;;;;;6188760;23;20327;-76
2022/05/30 03:26:16;;;;;;;5.35;2.30;;;15.20;99.90;;;;;;6215301;23;20012;-76
2022/05/30 03:28:42;;;;;;;1.85;1.75;;;15.00;99.90;;;;;;6215278;23;20005;-76
2022/05/30 03:31:08;;;;;;;3.47;2.42;;;15.10;99.90;;;;;;6215270;23;20441;-76
2022/05/30 03:33:35;;;;;;;2.88;2.50;;;15.20;99.90;;;;;;6215334;23;20001;-76
2022/05/30 03:36:02;;;;;;;3.30;2.33;;;15.10;99.90;;;;;;6187995;23;20020;-76
2022/05/30 03:38:27;;;;;;;2.10;1.90;;;15.10;99.90;;;;;;6215355;23;20005;-76
2022/05/30 03:40:53;;;;;;;3.20;2.30;;;15.10;99.90;;;;;;6215212;23;20476;-77
2022/05/30 03:43:20;;;;;;;3.45;2.58;;;15.20;99.90;;;;;;6215260;23;20531;-77
2022/05/30 03:45:46;;;;;;;2.20;2.10;;;15.20;99.90;;;;;;6215103;23;20008;-76
2022/05/30 03:48:14;;;;;;;2.47;2.10;;;15.20;99.90;;;;;;6215237;23;20000;-76
2022/05/30 03:50:41;;;;;;;3.03;2.72;;;15.20;99.90;;;;;;6214966;23;20455;-77
2022/05/30 03:53:08;;;;;;;5.55;3.17;;;15.30;99.90;;;;;;6214725;23;20050;-77
2022/05/30 03:55:39;;;;;;;2.90;2.63;;;15.30;99.90;;;;;;6216383;23;20014;-77
2022/05/30 03:58:07;;;;;;;5.18;2.53;;;15.30;99.90;;;;;;6217235;23;20031;-77
2022/05/30 04:00:34;;;;;;;3.50;2.70;;;15.20;99.90;;;;;;6217111;23;20310;-77
2022/05/30 04:03:03;;;;;;;2.70;2.50;;;15.10;99.90;;;;;;6217018;23;20001;-77
2022/05/30 04:05:29;;;;;;;2.72;2.25;;;15.10;99.90;;;;;;6216980;23;20001;-77
2022/05/30 04:07:55;;;;;;;2.55;2.33;;;15.10;99.90;;;;;;6217098;23;20043;-77
2022/05/30 04:10:21;;;;;;;2.80;2.50;;;15.20;99.90;;;;;;6217051;23;20004;-77
2022/05/30 04:12:47;;;;;;;2.40;2.15;;;15.20;99.90;;;;;;6190439;23;20008;-76
2022/05/30 04:15:22;;;;;;;2.75;2.55;;;15.20;99.90;;;;;;6216910;23;20111;-76
2022/05/30 04:17:49;;;;;;;2.97;2.53;;;15.30;99.90;;;;;;6216806;23;20012;-77
2022/05/30 04:20:15;;;;;;;2.45;2.25;;;15.20;99.90;;;;;;6216390;23;20008;-77
2022/05/30 04:22:44;;;;;;;3.85;2.20;;;15.20;99.90;;;;;;6216062;23;20027;-77
2022/05/30 04:25:10;;;;;;;2.50;2.30;;;15.20;99.90;;;;;;6216299;23;19997;-77
2022/05/30 04:27:35;;;;;;;2.40;2.20;;;15.10;99.90;;;;;;6215326;23;20000;-73
2022/05/30 04:30:01;;;;;;;3.05;2.40;;;15.20;99.90;;;;;;6216522;23;19997;-73
2022/05/30 04:32:27;;;;;;;1.88;1.77;;;15.10;99.90;;;;;;6216594;23;20000;-73
2022/05/30 04:34:53;;;;;;;2.60;2.05;;;15.10;99.90;;;;;;6216516;23;20325;-73
2022/05/30 04:37:19;;;;;;;1.90;1.80;;;15.00;99.90;;;;;;6215753;23;20005;-73
2022/05/30 04:39:44;;;;;;;1.90;1.80;;;15.00;99.90;;;;;;6215095;23;20001;-73
2022/05/30 04:42:10;;;;;;;2.35;2.15;;;14.90;99.90;;;;;;6215450;23;20007;-73
2022/05/30 04:44:36;;;;;;;4.10;2.20;;;14.90;99.90;;;;;;6214842;23;20075;-73
2022/05/30 04:47:03;;;;;;;2.30;2.20;;;14.90;99.90;;;;;;6215323;23;20376;-73
2022/05/30 04:49:29;;;;;;;2.28;2.17;;;15.00;99.90;;;;;;6215234;23;20009;-73
2022/05/30 04:51:55;;;;;;;2.15;2.05;;;15.00;99.90;;;;;;6215085;23;20040;-73
2022/05/30 04:54:21;;;;;;;4.20;2.17;;;15.20;99.90;;;;;;6215231;23;20425;-73
2022/05/30 04:56:47;;;;;;;3.50;2.17;;;15.20;99.90;;;;;;6188355;23;20015;-73
2022/05/30 04:59:14;;;;;;;2.25;2.15;;;15.30;99.90;;;;;;6215126;23;20000;-73
2022/05/30 05:01:40;;;;;;;2.10;2.00;;;15.20;99.90;;;;;;6215156;23;19993;-73
2022/05/30 05:04:07;;;;;;;3.17;1.90;;;15.30;99.90;;;;;;6215234;23;19996;-73
2022/05/30 05:06:34;;;;;;;2.00;1.90;;;15.40;99.90;;;;;;6188099;23;20005;-73
2022/05/30 05:09:17;;;;;;;3.17;1.95;;;15.40;99.90;;;;;;6215927;23;20001;-73
2022/05/30 05:11:45;;;;;;;2.45;2.25;;;15.40;99.90;;;;;;6216192;23;20001;-73
2022/05/30 05:14:11;;;;;;;2.55;2.45;;;15.50;99.90;;;;;;6216200;23;20063;-73
2022/05/30 05:16:38;;;;;;;4.13;2.40;;;15.60;99.90;;;;;;6215847;23;20008;-73
2022/05/30 05:19:04;;;;;;;4.35;3.20;;;15.60;99.90;;;;;;6215988;23;20016;-73
2022/05/30 05:21:33;;;;;;;3.75;3.25;;;15.60;99.90;;;;;;6216426;23;20023;-73
2022/05/30 05:24:00;;;;;;;3.10;2.90;;;15.70;99.90;;;;;;6189317;23;20001;-73
2022/05/30 05:26:26;;;;;;;3.65;3.35;;;15.70;99.90;;;;;;6216107;23;20448;-73
2022/05/30 05:28:53;;;;;;;4.32;3.97;;;15.80;99.90;;;;;;6216053;23;20313;-73
2022/05/30 05:31:22;;;;;;;4.20;3.80;;;15.80;99.90;;;;;;6216051;23;20008;-73
2022/05/30 05:33:48;;;;;;;5.28;4.65;;;15.80;99.90;;;;;;6215932;23;20353;-73
2022/05/30 05:36:22;;;;;;;4.55;4.25;;;15.80;99.90;;;;;;6215836;23;20050;-73
2022/05/30 05:38:49;;;;;;;4.63;4.22;;;15.70;99.90;;;;;;6215883;23;20448;-73
2022/05/30 05:41:14;;;;;;;4.32;4.05;;;15.80;99.90;;;;;;6189456;23;20009;-73
2022/05/30 05:43:40;;;;;;;4.45;4.10;;;15.80;99.90;;;;;;6215866;23;20075;-73
2022/05/30 05:46:15;;;;;;;4.60;4.20;;;15.80;99.90;;;;;;6189104;23;20059;-75
2022/05/30 05:48:41;;;;;;;4.38;3.97;;;15.80;99.90;;;;;;6215731;23;20005;-72
2022/05/30 05:51:07;;;;;;;4.43;4.13;;;15.90;99.90;;;;;;6215485;23;20452;-73
2022/05/30 05:53:32;;;;;;;5.97;4.45;;;15.80;99.90;;;;;;6215914;23;20379;-73
2022/05/30 05:55:58;;;;;;;4.70;4.40;;;15.90;99.90;;;;;;6215679;23;20011;-73
2022/05/30 05:58:24;;;;;;;4.15;3.90;;;15.90;99.90;;;;;;6215479;23;20440;-73
2022/05/30 06:00:50;;;;;;;5.28;4.88;;;15.90;99.90;;;;;;6215787;23;19997;-73
2022/05/30 06:03:15;;;;;;;5.00;4.55;;;16.00;99.90;;;;;;6215492;23;20005;-73
2022/05/30 06:05:44;;;;;;;5.05;4.57;;;16.00;99.90;;;;;;6215936;23;20004;-73
2022/05/30 06:08:11;;;;;;;5.00;4.50;;;16.00;99.90;;;;;;6216051;23;20005;-73
2022/05/30 06:11:05;;;;;;;6.20;4.75;;;16.10;99.90;;;;;;6215954;23;20084;-73
2022/05/30 06:13:23;;;;;;;5.22;4.78;;;16.10;99.90;;;;;;6215284;23;20032;-73
2022/05/30 06:15:48;;;;;;;5.10;4.60;;;16.10;99.90;;;;;;6215344;23;20008;-73
2022/05/30 06:18:14;;;;;;;11.13;4.75;;;16.10;99.90;;;;;;6214986;23;20598;-73
2022/05/30 06:20:41;;;;;;;4.65;4.35;;;16.20;99.90;;;;;;6215742;23;20000;-73
2022/05/30 06:23:07;;;;;;;4.47;4.18;;;16.20;99.90;;;;;;6215237;23;20080;-73
2022/05/30 06:25:33;;;;;;;5.18;4.72;;;16.20;99.90;;;;;;6215050;23;20004;-73
2022/05/30 06:27:59;;;;;;;4.55;4.25;;;16.10;99.90;;;;;;6215635;23;20184;-73
2022/05/30 06:30:24;;;;;;;5.05;4.60;;;16.30;99.90;;;;;;6215496;23;20009;-73
2022/05/30 06:32:50;;;;;;;5.03;4.63;;;16.40;99.90;;;;;;6215226;23;20007;-73
2022/05/30 06:35:16;;;;;;;5.65;4.82;;;16.40;99.90;;;;;;6215244;23;20035;-73
2022/05/30 06:37:41;;;;;;;5.07;4.63;;;16.40;99.90;;;;;;6215549;23;20004;-73
2022/05/30 06:40:08;;;;;;;5.38;4.60;;;16.50;99.90;;;;;;6189004;23;20004;-74
2022/05/30 06:42:33;;;;;;;5.97;4.45;;;16.50;99.90;;;;;;6215447;23;20029;-73
2022/05/30 06:44:59;;;;;;;5.40;4.93;;;16.50;99.90;;;;;;6215430;23;19997;-74
2022/05/30 06:47:25;;;;;;;6.45;4.40;;;16.50;99.90;;;;;;6215483;23;20022;-74
2022/05/30 06:49:51;;;;;;;5.10;4.63;;;16.50;99.90;;;;;;6215296;23;20004;-74
2022/05/30 06:52:17;;;;;;;5.28;4.78;;;16.60;99.90;;;;;;6215426;23;20001;-74
2022/05/30 06:54:43;;;;;;;5.53;5.03;;;16.60;99.90;;;;;;6188585;23;20009;-74
2022/05/30 06:59:53;;;;;;;5.78;5.20;;;16.60;99.90;;;;;;6215212;23;20015;-74
2022/05/30 07:02:19;;;;;;;5.45;4.75;;;16.60;99.90;;;;;;6215244;23;20080;-74
2022/05/30 07:04:45;;;;;;;6.07;5.07;;;16.60;99.90;;;;;;6215077;23;20000;-74
2022/05/30 07:07:11;;;;;;;4.82;4.47;;;16.70;99.90;;;;;;6215406;23;20052;-74
2022/05/30 07:09:38;;;;;;;4.85;4.55;;;16.60;99.90;;;;;;6215385;23;20005;-74
2022/05/30 07:12:06;;;;;;;5.00;4.70;;;16.60;99.90;;;;;;6214485;23;20022;-74
2022/05/30 07:14:32;;;;;;;5.88;4.78;;;16.70;99.90;;;;;;6187497;23;20458;-74
2022/05/30 07:16:57;;;;;;;4.88;4.25;;;16.70;99.90;;;;;;6214177;23;20011;-74
2022/05/30 07:19:23;;;;;;;4.80;4.50;;;16.80;99.90;;;;;;6213603;23;20004;-74
2022/05/30 07:21:49;;;;;;;8.57;4.57;;;16.70;99.90;;;;;;6213204;23;20389;-74
2022/05/30 07:24:14;;;;;;;7.18;5.20;;;16.60;99.90;;;;;;6214058;23;20000;-74
2022/05/30 07:26:40;;;;;;;4.75;4.35;;;16.70;99.90;;;;;;6213956;23;20325;-74
2022/05/30 07:29:08;;;;;;;5.85;5.22;;;16.60;99.90;;;;;;6213286;23;20015;-74
2022/05/30 07:31:34;;;;;;;4.93;4.53;;;16.80;99.90;;;;;;6213376;23;20007;-74
2022/05/30 07:33:59;;;;;;;5.03;4.30;;;16.60;99.90;;;;;;6213191;23;20001;-74
2022/05/30 07:36:28;;;;;;;4.15;3.90;;;16.60;99.90;;;;;;6213095;23;20000;-74
2022/05/30 07:38:55;;;;;;;4.35;4.03;;;16.70;99.90;;;;;;6213477;23;20099;-74
2022/05/30 07:41:22;;;;;;;4.57;4.18;;;16.80;99.90;;;;;;6213432;23;20409;-74
2022/05/30 07:43:48;;;;;;;3.92;3.63;;;17.00;99.90;;;;;;6214913;23;20001;-74
2022/05/30 07:46:16;;;;;;;4.57;4.18;;;17.10;99.90;;;;;;6214946;23;20004;-74
2022/05/30 07:48:43;;;;;;;4.75;4.45;;;17.30;99.90;;;;;;6214997;23;20004;-74
2022/05/30 07:51:10;;;;;;;4.63;4.32;;;17.30;99.90;;;;;;6215084;23;20001;-74
2022/05/30 07:53:37;;;;;;;4.93;4.45;;;17.30;99.90;;;;;;6215002;23;20317;-74
2022/05/30 07:56:11;;;;;;;6.68;4.90;;;17.40;99.90;;;;;;6214607;23;20031;-74
2022/05/30 07:58:37;;;;;;;6.00;5.40;;;17.40;99.90;;;;;;6214903;23;19996;-74
2022/05/30 08:01:04;;;;;;;5.60;5.20;;;17.50;99.90;;;;;;6214978;23;20026;-74
2022/05/30 08:03:30;;;;;;;5.38;4.90;;;17.40;99.90;;;;;;6214756;23;20001;-74
2022/05/30 08:06:12;;;;;;;5.72;5.25;;;17.40;99.90;;;;;;6214876;23;20083;-74
2022/05/30 08:08:41;;;;;;;7.13;5.70;;;17.30;99.90;;;;;;6187699;23;20009;-74
2022/05/30 08:11:07;;;;;;;6.55;5.97;;;17.40;99.90;;;;;;6215154;23;20004;-74
2022/05/30 08:13:33;;;;;;;7.05;5.78;;;17.50;99.90;;;;;;6214962;23;20383;-74
2022/05/30 08:15:59;;;;;;;5.65;5.25;;;17.50;99.90;;;;;;6214506;23;20051;-74
2022/05/30 08:18:25;;;;;;;7.97;5.85;;;17.50;99.90;;;;;;6214384;23;20013;-74
2022/05/30 08:20:51;;;;;;;6.10;5.57;;;17.50;99.90;;;;;;6214708;23;20320;-74
2022/05/30 08:23:17;;;;;;;5.57;4.93;;;17.60;99.90;;;;;;6187717;23;20032;-74
2022/05/30 08:25:45;;;;;;;6.05;5.50;;;17.70;99.90;;;;;;6214429;23;20001;-74
2022/05/30 08:28:11;;;;;;;5.82;5.35;;;17.70;99.90;;;;;;6188039;23;20004;-74
2022/05/30 08:30:37;;;;;;;5.63;5.13;;;17.70;99.90;;;;;;6187971;23;20004;-74
2022/05/30 08:33:09;;;;;;;6.78;5.40;;;17.70;99.90;;;;;;6215076;23;20011;-74
2022/05/30 08:35:36;;;;;;;6.03;5.50;;;17.80;99.90;;;;;;6214832;23;20011;-74
2022/05/30 08:38:02;;;;;;;5.90;5.40;;;17.80;99.90;;;;;;6214587;23;20455;-74
2022/05/30 08:43:26;;;;;;;9.27;5.22;;;17.70;99.90;;;;;;6215645;23;20028;-74
2022/05/30 08:46:02;;;;;;;5.28;4.95;;;17.80;99.90;;;;;;6216145;23;20004;-74
2022/05/30 08:48:55;;;;;;;6.57;5.97;;;17.90;99.90;;;;;;6189533;23;20015;-74
2022/05/30 08:51:36;;;;;;;4.68;4.35;;;17.80;99.90;;;;;;6216479;23;20047;-74
2022/05/30 08:54:17;;;;;;;5.05;4.13;;;17.80;99.90;;;;;;6215853;23;20463;-74
2022/05/30 08:56:47;;;;;;;4.88;4.47;;;17.80;99.90;;;;;;6216345;23;20004;-74
2022/05/30 08:59:53;;;;;;;5.40;4.90;;;17.90;99.90;;;;;;6216241;23;20004;-74
2022/05/30 09:02:25;;;;;;;4.95;4.45;;;17.90;99.90;;;;;;6216641;23;20075;-74
2022/05/30 09:05:08;;;;;;;5.57;4.43;;;17.80;99.90;;;;;;6216732;23;19989;-78
2022/05/30 09:07:46;;;;;;;5.13;4.63;;;17.90;99.90;;;;;;6216489;23;20011;-78
2022/05/30 09:11:04;;;;;;;5.85;3.58;;;18.00;99.90;;;;;;6216535;23;20011;-78
2022/05/30 09:13:37;;;;;;;4.43;3.97;;;18.10;99.90;;;;;;6166109;23;20104;-78
2022/05/30 09:16:17;;;;;;;;;;;18.30;99.90;;;;;;6190169;23;20036;-78
2022/05/30 09:18:52;;;;;;;3.97;3.67;;;18.40;99.90;;;;;;6216346;23;19916;-78
2022/05/30 09:21:21;;;;;;;5.10;4.30;;;18.50;99.90;;;;;;6216535;23;20000;-78
2022/05/30 09:23:47;;;;;;;4.20;3.90;;;18.60;99.90;;;;;;6216490;23;19997;-78
2022/05/30 09:26:17;;;;;;;4.93;4.38;;;18.50;99.90;;;;;;6189701;23;20147;-78
2022/05/30 09:28:45;;;;;;;3.90;3.60;;;18.50;99.90;;;;;;6189657;23;20437;-78
2022/05/30 09:31:29;;;;;;;4.68;3.65;;;18.60;99.90;;;;;;6216378;23;20005;-78
2022/05/30 09:33:57;;;;;;;7.18;4.25;;;18.70;99.90;;;;;;6216233;23;20004;-78
2022/05/30 09:36:28;;;;;;;3.78;3.40;;;18.70;99.90;;;;;;6216168;23;20012;-78
2022/05/30 09:39:05;;;;;;;4.20;3.80;;;18.70;99.90;;;;;;6216472;23;20004;-78
2022/05/30 09:41:42;;;;;;;3.47;3.17;;;18.80;99.90;;;;;;6216343;23;20001;-78
2022/05/30 09:44:17;;;;;;;2.95;2.75;;;18.90;99.90;;;;;;6216490;23;20004;-78
2022/05/30 09:46:55;;;;;;;2.83;2.67;;;19.10;99.90;;;;;;6216193;23;20031;-78
2022/05/30 09:49:26;;;;;;;2.83;2.63;;;19.20;99.90;;;;;;6216282;23;20008;-78
2022/05/30 09:51:56;;;;;;;3.40;3.20;;;19.20;99.90;;;;;;6215454;23;20000;-78
2022/05/30 09:54:25;;;;;;;3.65;3.35;;;19.30;99.90;;;;;;6215934;23;20004;-78
2022/05/30 09:57:19;;;;;;;3.47;3.17;;;19.30;99.90;;;;;;6216061;23;20433;-78
2022/05/30 09:59:52;;;;;;;2.85;2.63;;;19.30;99.90;;;;;;6202670;23;20015;-78
2022/05/30 10:02:31;;;;;;;2.50;2.35;;;19.40;99.90;;;;;;6189453;23;19997;-78
2022/05/30 10:05:08;;;;;;;3.13;2.65;;;19.40;99.90;;;;;;6215872;23;20028;-78
2022/05/30 10:07:35;;;;;;;4.80;2.60;;;19.60;99.90;;;;;;6215960;23;20055;-78
2022/05/30 10:10:22;;;;;;;3.20;3.00;;;19.70;99.90;;;;;;6216094;23;20001;-78
2022/05/30 10:13:07;;;;;;;4.18;3.65;;;19.60;99.90;;;;;;6189373;23;20008;-78
2022/05/30 10:15:42;;;;;;;3.95;3.58;;;19.60;99.90;;;;;;6215707;23;20433;-78
2022/05/30 10:18:13;;;;;;;3.22;3.03;;;19.70;99.90;;;;;;6215872;23;20040;-78
2022/05/30 10:21:17;;;;;;;2.60;2.40;;;19.60;99.90;;;;;;6216054;23;20005;-78
2022/05/30 10:30:32;;;;;;;2.78;2.58;;;20.10;99.90;;;;;;6215722;23;20020;-78
2022/05/30 10:33:22;;;;;;;2.72;2.63;;;20.30;99.90;;;;;;6215583;23;20005;-78
2022/05/30 10:36:15;;;;;;;5.93;2.42;;;20.50;99.90;;;;;;6215479;23;20001;-78
2022/05/30 10:38:55;;;;;;;2.47;2.38;;;20.70;99.90;;;;;;6215642;23;19996;-78
2022/05/30 10:41:38;;;;;;;2.08;1.98;;;20.70;99.90;;;;;;6215755;23;20104;-78
2022/05/30 10:44:06;;;;;;;2.42;2.22;;;20.80;98.10;;;;;;6215792;23;20000;-78
2022/05/30 10:46:39;;;;;;;2.17;1.55;;;20.80;98.10;;;;;;6215766;23;20055;-78
2022/05/30 10:49:30;;;;;;;2.60;1.77;;;20.70;98.30;;;;;;6215859;23;20031;-78
2022/05/30 10:52:17;;;;;;;1.98;1.88;;;20.80;98.30;;;;;;6215822;23;20024;-78
2022/05/30 10:54:54;;;;;;;1.80;1.55;;;21.00;97.90;;;;;;6215574;23;20428;-78
2022/05/30 10:57:39;;;;;;;1.50;1.40;;;21.00;96.80;;;;;;6215261;23;20008;-74
2022/05/30 11:00:15;;;;;;;10.82;3.20;;;21.20;97.60;;;;;;6215383;23;20000;-74
2022/05/30 11:02:59;;;;;;;1.45;1.35;;;21.20;96.60;;;;;;6188553;23;20380;-74
2022/05/30 11:05:52;;;;;;;3.35;1.40;;;21.30;95.60;;;;;;6188454;23;20066;-74
2022/05/30 11:08:27;;;;;;;1.67;1.30;;;21.50;96.60;;;;;;6215141;23;20000;-74
2022/05/30 11:11:12;;;;;;;3.33;1.38;;;21.50;94.20;;;;;;6215322;23;19996;-73
2022/05/30 11:14:00;;;;;;;1.35;1.00;;;21.50;94.70;;;;;;6215301;23;20004;-74
2022/05/30 11:16:47;;;;;;;3.22;1.10;;;21.50;94.60;;;;;;6188041;23;20043;-74
2022/05/30 11:19:50;;;;;;;1.20;0.90;;;21.60;94.90;;;;;;6188270;23;20018;-74
2022/05/30 11:22:23;;;;;;;0.98;0.98;;;21.80;93.60;;;;;;6188307;23;20001;-74
2022/05/30 11:24:52;;;;;;;0.75;0.75;;;21.90;93.40;;;;;;6214710;23;20001;-74
2022/05/30 11:27:33;;;;;;;1.33;0.73;;;21.80;92.10;;;;;;6215223;23;20028;-73
2022/05/30 11:30:08;;;;;;;1.60;0.80;;;21.90;91.10;;;;;;6215087;23;20075;-73
2022/05/30 11:32:42;;;;;;;1.30;1.20;;;22.10;91.30;;;;;;6215059;23;20224;-74
2022/05/30 11:35:08;;;;;;;1.95;0.95;;;22.20;92.30;;;;;;6214729;23;20035;-74
2022/05/30 11:37:53;;;;;;;0.73;0.73;;;22.40;93.20;;;;;;6215335;23;20409;-74
2022/05/30 11:40:22;;;;;;;1.00;0.70;;;22.50;89.80;;;;;;6215108;23;20333;-74
2022/05/30 11:43:07;;;;;;;1.92;1.50;;;22.60;91.20;;;;;;6214911;23;20008;-74
2022/05/30 11:45:35;;;;;;;3.03;1.08;;;22.70;90.50;;;;;;6214566;23;19997;-73
2022/05/30 11:48:16;;;;;;;1.20;1.10;;;22.70;88.20;;;;;;6215004;23;20004;-73
2022/05/30 11:51:11;;;;;;;1.10;0.60;;;22.80;85.70;;;;;;6215067;23;20436;-74
2022/05/30 11:54:02;;;;;;;3.05;0.90;;;22.70;85.80;;;;;;6214884;23;20028;-73
2022/05/30 11:56:46;;;;;;;0.73;0.73;;;22.60;84.70;;;;;;6214826;23;20080;-73
2022/05/30 11:59:40;;;;;;;1.48;0.50;;;22.70;84.10;;;;;;6214758;23;20001;-73
2022/05/30 12:02:13;;;;;;;3.55;0.75;;;22.90;89.10;;;;;;6188110;23;19992;-73
2022/05/30 12:05:25;;;;;;;1.60;0.63;;;23.20;90.30;;;;;;6214310;23;20001;-73
2022/05/30 12:07:57;;;;;;;;;;;23.30;82.20;;;;;;6215490;23;19996;-73
2022/05/30 12:10:45;;;;;;;1.00;1.00;;;23.40;82.30;;;;;;6188344;23;19907;-73
2022/05/30 12:13:24;;;;;;;0.85;0.85;;;23.50;85.80;;;;;;6214862;23;20001;-74
2022/05/30 12:16:05;;;;;;;0.70;0.70;;;23.70;82.30;;;;;;6215363;23;20310;-73
2022/05/30 12:24:18;;;;;;;1.38;1.27;;;23.60;77.50;;;;;;6215244;23;20394;-73
2022/05/30 12:26:53;;;;;;;0.77;0.77;;;23.60;79.40;;;;;;6215708;23;20075;-73
2022/05/30 12:29:37;;;;;;;1.25;1.13;;;23.80;80.20;;;;;;6215735;23;20074;-73
2022/05/30 12:32:20;;;;;;;1.52;1.00;;;24.00;78.60;;;;;;6188379;23;20012;-73
2022/05/30 12:35:00;;;;;;;1.55;1.10;;;24.00;78.30;;;;;;6215650;23;20015;-73
2022/05/30 12:37:44;;;;;;;0.80;0.80;;;24.00;77.60;;;;;;6189241;23;20013;-73
2022/05/30 12:40:28;;;;;;;1.50;0.95;;;24.10;77.40;;;;;;6214886;23;19997;-73
2022/05/30 12:43:14;;;;;;;1.02;0.93;;;24.00;74.90;;;;;;6215717;23;20421;-73
2022/05/30 12:45:54;;;;;;;1.92;0.90;;;24.30;74.30;;;;;;6215236;23;20001;-73
2022/05/30 12:49:03;;;;;;;1.98;1.02;;;24.30;72.70;;;;;;6215775;23;20380;-73
2022/05/30 12:51:38;;;;;;;1.02;1.02;;;24.50;73.70;;;;;;6149779;23;20000;-73
2022/05/30 12:54:03;;;;;;;1.15;1.05;;;24.70;75.70;;;;;;6189964;23;20298;-73
2022/05/30 12:56:39;;;;;;;2.85;0.90;;;24.90;75.20;;;;;;6216464;23;20015;-73
2022/05/30 12:59:16;;;;;;;0.88;0.88;;;25.20;81.30;;;;;;6216441;23;20407;-73
2022/05/30 13:01:42;;;;;;;1.60;1.15;;;25.30;75.70;;;;;;6216529;23;20062;-73
2022/05/30 13:04:26;;;;;;;0.55;0.55;;;25.00;67.50;;;;;;6216457;23;20475;-73
2022/05/30 13:06:58;;;;;;;1.42;1.33;;;24.90;76.10;;;;;;6189284;23;20004;-73
2022/05/30 13:09:40;;;;;;;0.60;0.60;;;24.80;76.30;;;;;;6215947;23;20011;-73
2022/05/30 13:12:14;;;;;;;4.75;0.90;;;24.60;77.50;;;;;;6189348;23;20028;-73
2022/05/30 13:15:01;;;;;;;0.88;0.68;;;24.50;73.10;;;;;;6189270;23;20051;-73
2022/05/30 13:17:43;;;;;;;1.67;1.30;;;24.30;74.00;;;;;;6214511;23;20050;-73
2022/05/30 13:20:13;;;;;;;0.90;0.77;;;24.00;72.30;;;;;;6187670;23;20096;-73
2022/05/30 13:22:54;;;;;;;1.33;1.10;;;23.80;73.60;;;;;;6214730;23;20051;-73
2022/05/30 13:25:46;;;;;;;1.17;0.90;;;23.60;73.80;;;;;;6214561;23;20079;-73
2022/05/30 13:28:30;;;;;;;;;;;23.50;74.10;;;;;;6202037;23;20004;-73
2022/05/30 13:30:57;;;;;;;0.80;0.60;;;23.50;76.10;;;;;;6213360;23;19903;-73
2022/05/30 13:33:49;;;;;;;2.35;0.93;;;23.50;77.80;;;;;;6188264;23;20004;-73